sensor_id;sensor_type;location;lat;lon;timestamp;P1;durP1;ratioP1;P2;durP2;ratioP2
75358;SDS011;64046;51.978;5.934;2023-02-15T00:01:18;31.10;;;16.98;;
75358;SDS011;64046;51.978;5.934;2023-02-15T00:03:47;30.00;;;16.98;;
75358;SDS011;64046;51.978;5.934;2023-02-15T00:06:17;28.95;;;16.45;;
75358;SDS011;64046;51.978;5.934;2023-02-15T00:08:46;31.83;;;15.88;;
75358;SDS011;64046;51.978;5.934;2023-02-15T00:11:17;28.55;;;16.92;;
75358;SDS011;64046;51.978;5.934;2023-02-15T00:14:05;33.10;;;17.50;;
75358;SDS011;64046;51.978;5.934;2023-02-15T00:16:35;29.40;;;15.75;;
75358;SDS011;64046;51.978;5.934;2023-02-15T00:19:05;28.05;;;15.00;;
75358;SDS011;64046;51.978;5.934;2023-02-15T00:21:35;34.08;;;18.15;;
75358;SDS011;64046;51.978;5.934;2023-02-15T00:24:05;31.77;;;14.85;;
75358;SDS011;64046;51.978;5.934;2023-02-15T00:26:40;36.40;;;18.65;;
75358;SDS011;64046;51.978;5.934;2023-02-15T00:29:10;34.63;;;18.25;;
75358;SDS011;64046;51.978;5.934;2023-02-15T00:31:41;32.67;;;16.15;;
75358;SDS011;64046;51.978;5.934;2023-02-15T00:34:12;37.80;;;20.00;;
75358;SDS011;64046;51.978;5.934;2023-02-15T00:36:42;38.72;;;20.00;;
75358;SDS011;64046;51.978;5.934;2023-02-15T00:39:14;33.25;;;18.50;;
75358;SDS011;64046;51.978;5.934;2023-02-15T00:41:47;31.23;;;17.83;;
75358;SDS011;64046;51.978;5.934;2023-02-15T00:44:17;26.08;;;15.60;;
75358;SDS011;64046;51.978;5.934;2023-02-15T00:46:46;37.03;;;17.58;;
75358;SDS011;64046;51.978;5.934;2023-02-15T00:49:15;30.20;;;17.00;;
75358;SDS011;64046;51.978;5.934;2023-02-15T00:51:45;29.75;;;16.40;;
75358;SDS011;64046;51.978;5.934;2023-02-15T00:54:14;31.35;;;18.33;;
75358;SDS011;64046;51.978;5.934;2023-02-15T00:56:43;29.52;;;18.25;;
75358;SDS011;64046;51.978;5.934;2023-02-15T00:59:15;34.30;;;18.27;;
75358;SDS011;64046;51.978;5.934;2023-02-15T01:01:44;33.75;;;18.67;;
75358;SDS011;64046;51.978;5.934;2023-02-15T01:04:13;28.27;;;15.57;;
75358;SDS011;64046;51.978;5.934;2023-02-15T01:06:42;31.02;;;17.00;;
75358;SDS011;64046;51.978;5.934;2023-02-15T01:09:11;27.45;;;15.48;;
75358;SDS011;64046;51.978;5.934;2023-02-15T01:11:41;28.38;;;15.93;;
75358;SDS011;64046;51.978;5.934;2023-02-15T01:14:10;27.15;;;15.40;;
75358;SDS011;64046;51.978;5.934;2023-02-15T01:16:43;30.92;;;15.65;;
75358;SDS011;64046;51.978;5.934;2023-02-15T01:19:13;28.17;;;16.35;;
75358;SDS011;64046;51.978;5.934;2023-02-15T01:21:42;29.70;;;16.60;;
75358;SDS011;64046;51.978;5.934;2023-02-15T01:24:11;31.48;;;16.77;;
75358;SDS011;64046;51.978;5.934;2023-02-15T01:26:42;30.00;;;15.63;;
75358;SDS011;64046;51.978;5.934;2023-02-15T01:29:11;32.05;;;17.05;;
75358;SDS011;64046;51.978;5.934;2023-02-15T01:31:40;27.75;;;16.13;;
75358;SDS011;64046;51.978;5.934;2023-02-15T01:34:12;31.15;;;16.50;;
75358;SDS011;64046;51.978;5.934;2023-02-15T01:36:41;34.45;;;17.17;;
75358;SDS011;64046;51.978;5.934;2023-02-15T01:39:10;27.58;;;15.15;;
75358;SDS011;64046;51.978;5.934;2023-02-15T01:41:39;31.33;;;18.17;;
75358;SDS011;64046;51.978;5.934;2023-02-15T01:47:22;28.27;;;16.67;;
75358;SDS011;64046;51.978;5.934;2023-02-15T01:49:59;32.47;;;17.60;;
75358;SDS011;64046;51.978;5.934;2023-02-15T01:52:35;31.30;;;17.10;;
75358;SDS011;64046;51.978;5.934;2023-02-15T01:55:10;27.33;;;14.85;;
75358;SDS011;64046;51.978;5.934;2023-02-15T01:57:42;25.27;;;15.15;;
75358;SDS011;64046;51.978;5.934;2023-02-15T02:00:13;33.72;;;17.20;;
75358;SDS011;64046;51.978;5.934;2023-02-15T02:02:47;25.67;;;13.38;;
75358;SDS011;64046;51.978;5.934;2023-02-15T02:08:02;29.85;;;16.15;;
75358;SDS011;64046;51.978;5.934;2023-02-15T02:10:32;33.53;;;16.70;;
75358;SDS011;64046;51.978;5.934;2023-02-15T02:13:02;28.88;;;16.08;;
75358;SDS011;64046;51.978;5.934;2023-02-15T02:15:37;28.50;;;16.30;;
75358;SDS011;64046;51.978;5.934;2023-02-15T02:18:15;30.95;;;17.10;;
75358;SDS011;64046;51.978;5.934;2023-02-15T02:21:11;30.60;;;17.08;;
75358;SDS011;64046;51.978;5.934;2023-02-15T02:24:01;29.98;;;16.52;;
75358;SDS011;64046;51.978;5.934;2023-02-15T02:26:54;31.98;;;16.67;;
75358;SDS011;64046;51.978;5.934;2023-02-15T02:29:49;27.77;;;14.18;;
75358;SDS011;64046;51.978;5.934;2023-02-15T02:35:48;29.98;;;16.35;;
75358;SDS011;64046;51.978;5.934;2023-02-15T02:38:26;28.20;;;16.35;;
75358;SDS011;64046;51.978;5.934;2023-02-15T02:41:04;29.70;;;15.90;;
75358;SDS011;64046;51.978;5.934;2023-02-15T02:43:37;28.58;;;15.93;;
75358;SDS011;64046;51.978;5.934;2023-02-15T02:46:17;29.35;;;16.00;;
75358;SDS011;64046;51.978;5.934;2023-02-15T02:48:50;27.73;;;15.50;;
75358;SDS011;64046;51.978;5.934;2023-02-15T02:51:23;33.10;;;17.25;;
75358;SDS011;64046;51.978;5.934;2023-02-15T02:53:53;30.88;;;16.33;;
75358;SDS011;64046;51.978;5.934;2023-02-15T02:56:26;29.60;;;15.27;;
75358;SDS011;64046;51.978;5.934;2023-02-15T02:58:59;35.22;;;17.00;;
75358;SDS011;64046;51.978;5.934;2023-02-15T03:01:32;25.20;;;13.70;;
75358;SDS011;64046;51.978;5.934;2023-02-15T03:04:07;31.70;;;16.58;;
75358;SDS011;64046;51.978;5.934;2023-02-15T03:06:42;34.15;;;17.83;;
75358;SDS011;64046;51.978;5.934;2023-02-15T03:09:18;34.05;;;17.77;;
75358;SDS011;64046;51.978;5.934;2023-02-15T03:12:00;27.35;;;14.23;;
75358;SDS011;64046;51.978;5.934;2023-02-15T03:14:33;25.85;;;14.57;;
75358;SDS011;64046;51.978;5.934;2023-02-15T03:17:04;27.65;;;15.65;;
75358;SDS011;64046;51.978;5.934;2023-02-15T03:19:36;28.05;;;15.85;;
75358;SDS011;64046;51.978;5.934;2023-02-15T03:22:10;29.10;;;15.82;;
75358;SDS011;64046;51.978;5.934;2023-02-15T03:24:46;35.10;;;17.17;;
75358;SDS011;64046;51.978;5.934;2023-02-15T03:27:20;32.22;;;15.80;;
75358;SDS011;64046;51.978;5.934;2023-02-15T03:29:54;29.42;;;14.98;;
75358;SDS011;64046;51.978;5.934;2023-02-15T03:32:27;33.83;;;18.50;;
75358;SDS011;64046;51.978;5.934;2023-02-15T03:34:57;30.98;;;16.45;;
75358;SDS011;64046;51.978;5.934;2023-02-15T03:37:31;27.20;;;14.68;;
75358;SDS011;64046;51.978;5.934;2023-02-15T03:40:05;29.48;;;16.20;;
75358;SDS011;64046;51.978;5.934;2023-02-15T03:42:52;26.92;;;13.90;;
75358;SDS011;64046;51.978;5.934;2023-02-15T03:45:30;28.05;;;16.75;;
75358;SDS011;64046;51.978;5.934;2023-02-15T03:48:01;28.23;;;16.00;;
75358;SDS011;64046;51.978;5.934;2023-02-15T03:50:34;30.63;;;15.68;;
75358;SDS011;64046;51.978;5.934;2023-02-15T03:53:21;31.85;;;16.73;;
75358;SDS011;64046;51.978;5.934;2023-02-15T03:55:53;27.70;;;15.18;;
75358;SDS011;64046;51.978;5.934;2023-02-15T03:58:23;33.88;;;17.13;;
75358;SDS011;64046;51.978;5.934;2023-02-15T04:01:09;24.88;;;14.77;;
75358;SDS011;64046;51.978;5.934;2023-02-15T04:03:59;24.27;;;13.95;;
75358;SDS011;64046;51.978;5.934;2023-02-15T04:06:33;27.50;;;14.63;;
75358;SDS011;64046;51.978;5.934;2023-02-15T04:09:05;31.95;;;15.65;;
75358;SDS011;64046;51.978;5.934;2023-02-15T04:11:47;32.78;;;15.02;;
75358;SDS011;64046;51.978;5.934;2023-02-15T04:14:16;26.58;;;15.40;;
75358;SDS011;64046;51.978;5.934;2023-02-15T04:16:57;24.75;;;14.50;;
75358;SDS011;64046;51.978;5.934;2023-02-15T04:19:27;30.50;;;16.63;;
75358;SDS011;64046;51.978;5.934;2023-02-15T04:22:08;30.80;;;16.67;;
75358;SDS011;64046;51.978;5.934;2023-02-15T04:24:52;26.98;;;14.90;;
75358;SDS011;64046;51.978;5.934;2023-02-15T04:27:35;27.35;;;15.00;;
75358;SDS011;64046;51.978;5.934;2023-02-15T04:30:05;27.15;;;15.57;;
75358;SDS011;64046;51.978;5.934;2023-02-15T04:32:35;30.27;;;17.38;;
75358;SDS011;64046;51.978;5.934;2023-02-15T04:35:06;28.73;;;15.73;;
75358;SDS011;64046;51.978;5.934;2023-02-15T04:37:35;31.38;;;15.75;;
75358;SDS011;64046;51.978;5.934;2023-02-15T04:40:09;28.35;;;15.25;;
75358;SDS011;64046;51.978;5.934;2023-02-15T04:42:40;26.35;;;13.50;;
75358;SDS011;64046;51.978;5.934;2023-02-15T04:45:09;29.33;;;15.02;;
75358;SDS011;64046;51.978;5.934;2023-02-15T04:47:38;25.50;;;15.52;;
75358;SDS011;64046;51.978;5.934;2023-02-15T04:50:08;29.05;;;15.60;;
75358;SDS011;64046;51.978;5.934;2023-02-15T04:52:38;28.20;;;13.60;;
75358;SDS011;64046;51.978;5.934;2023-02-15T04:55:10;28.92;;;15.02;;
75358;SDS011;64046;51.978;5.934;2023-02-15T04:57:39;27.40;;;15.00;;
75358;SDS011;64046;51.978;5.934;2023-02-15T05:00:09;28.52;;;15.35;;
75358;SDS011;64046;51.978;5.934;2023-02-15T05:02:39;29.75;;;15.93;;
75358;SDS011;64046;51.978;5.934;2023-02-15T05:05:08;25.17;;;13.13;;
75358;SDS011;64046;51.978;5.934;2023-02-15T05:07:38;25.98;;;15.05;;
75358;SDS011;64046;51.978;5.934;2023-02-15T05:10:10;23.95;;;14.18;;
75358;SDS011;64046;51.978;5.934;2023-02-15T05:12:39;26.48;;;14.00;;
75358;SDS011;64046;51.978;5.934;2023-02-15T05:15:09;28.58;;;16.52;;
75358;SDS011;64046;51.978;5.934;2023-02-15T05:17:38;29.77;;;15.07;;
75358;SDS011;64046;51.978;5.934;2023-02-15T05:20:07;25.38;;;13.30;;
75358;SDS011;64046;51.978;5.934;2023-02-15T05:22:37;26.00;;;15.55;;
75358;SDS011;64046;51.978;5.934;2023-02-15T05:25:07;23.75;;;13.80;;
75358;SDS011;64046;51.978;5.934;2023-02-15T05:27:51;30.00;;;14.93;;
75358;SDS011;64046;51.978;5.934;2023-02-15T05:30:33;28.00;;;15.55;;
75358;SDS011;64046;51.978;5.934;2023-02-15T05:33:02;27.02;;;13.32;;
75358;SDS011;64046;51.978;5.934;2023-02-15T05:35:32;31.98;;;16.83;;
75358;SDS011;64046;51.978;5.934;2023-02-15T05:38:01;29.38;;;16.05;;
75358;SDS011;64046;51.978;5.934;2023-02-15T05:40:33;28.50;;;14.35;;
75358;SDS011;64046;51.978;5.934;2023-02-15T05:43:03;27.35;;;13.93;;
75358;SDS011;64046;51.978;5.934;2023-02-15T05:45:32;24.88;;;13.52;;
75358;SDS011;64046;51.978;5.934;2023-02-15T05:48:01;24.80;;;14.18;;
75358;SDS011;64046;51.978;5.934;2023-02-15T05:50:30;26.35;;;13.18;;
75358;SDS011;64046;51.978;5.934;2023-02-15T05:52:59;34.53;;;18.10;;
75358;SDS011;64046;51.978;5.934;2023-02-15T05:55:28;27.55;;;15.35;;
75358;SDS011;64046;51.978;5.934;2023-02-15T05:58:00;30.35;;;16.92;;
75358;SDS011;64046;51.978;5.934;2023-02-15T06:00:29;29.27;;;16.95;;
75358;SDS011;64046;51.978;5.934;2023-02-15T06:02:58;32.65;;;16.73;;
75358;SDS011;64046;51.978;5.934;2023-02-15T06:05:28;31.40;;;16.23;;
75358;SDS011;64046;51.978;5.934;2023-02-15T06:07:57;31.38;;;14.57;;
75358;SDS011;64046;51.978;5.934;2023-02-15T06:10:26;29.50;;;14.05;;
75358;SDS011;64046;51.978;5.934;2023-02-15T06:12:55;26.20;;;12.95;;
75358;SDS011;64046;51.978;5.934;2023-02-15T06:15:27;29.50;;;14.93;;
75358;SDS011;64046;51.978;5.934;2023-02-15T06:17:56;31.90;;;17.85;;
75358;SDS011;64046;51.978;5.934;2023-02-15T06:20:25;35.38;;;18.77;;
75358;SDS011;64046;51.978;5.934;2023-02-15T06:22:54;27.67;;;15.63;;
75358;SDS011;64046;51.978;5.934;2023-02-15T06:25:24;29.13;;;15.48;;
75358;SDS011;64046;51.978;5.934;2023-02-15T06:27:53;28.27;;;15.13;;
75358;SDS011;64046;51.978;5.934;2023-02-15T06:30:22;27.17;;;15.02;;
75358;SDS011;64046;51.978;5.934;2023-02-15T06:32:54;26.25;;;15.35;;
75358;SDS011;64046;51.978;5.934;2023-02-15T06:35:23;29.60;;;15.82;;
75358;SDS011;64046;51.978;5.934;2023-02-15T06:37:52;29.65;;;15.95;;
75358;SDS011;64046;51.978;5.934;2023-02-15T06:40:21;27.50;;;15.45;;
75358;SDS011;64046;51.978;5.934;2023-02-15T06:42:50;27.67;;;15.82;;
75358;SDS011;64046;51.978;5.934;2023-02-15T06:45:20;33.55;;;17.23;;
75358;SDS011;64046;51.978;5.934;2023-02-15T06:47:49;27.45;;;15.32;;
75358;SDS011;64046;51.978;5.934;2023-02-15T06:50:21;32.40;;;17.17;;
75358;SDS011;64046;51.978;5.934;2023-02-15T06:52:54;28.13;;;15.20;;
75358;SDS011;64046;51.978;5.934;2023-02-15T06:55:24;34.45;;;17.08;;
75358;SDS011;64046;51.978;5.934;2023-02-15T06:57:54;31.17;;;16.90;;
75358;SDS011;64046;51.978;5.934;2023-02-15T07:00:23;28.13;;;15.98;;
75358;SDS011;64046;51.978;5.934;2023-02-15T07:02:53;25.88;;;14.52;;
75358;SDS011;64046;51.978;5.934;2023-02-15T07:05:26;33.53;;;16.77;;
75358;SDS011;64046;51.978;5.934;2023-02-15T07:07:57;29.25;;;16.63;;
75358;SDS011;64046;51.978;5.934;2023-02-15T07:10:27;26.52;;;13.63;;
75358;SDS011;64046;51.978;5.934;2023-02-15T07:12:56;25.88;;;14.27;;
75358;SDS011;64046;51.978;5.934;2023-02-15T07:15:23;32.92;;;17.33;;
75358;SDS011;64046;51.978;5.934;2023-02-15T07:17:52;28.95;;;15.98;;
75358;SDS011;64046;51.978;5.934;2023-02-15T07:20:22;25.88;;;15.27;;
75358;SDS011;64046;51.978;5.934;2023-02-15T07:22:54;28.45;;;15.45;;
75358;SDS011;64046;51.978;5.934;2023-02-15T07:25:23;26.73;;;15.35;;
75358;SDS011;64046;51.978;5.934;2023-02-15T07:27:55;29.10;;;15.10;;
75358;SDS011;64046;51.978;5.934;2023-02-15T07:30:24;26.83;;;14.50;;
75358;SDS011;64046;51.978;5.934;2023-02-15T07:32:54;26.90;;;15.23;;
75358;SDS011;64046;51.978;5.934;2023-02-15T07:35:36;41.00;;;18.40;;
75358;SDS011;64046;51.978;5.934;2023-02-15T07:38:08;27.17;;;15.07;;
75358;SDS011;64046;51.978;5.934;2023-02-15T07:40:37;28.90;;;15.30;;
75358;SDS011;64046;51.978;5.934;2023-02-15T07:43:07;27.10;;;14.18;;
75358;SDS011;64046;51.978;5.934;2023-02-15T07:45:36;27.30;;;15.02;;
75358;SDS011;64046;51.978;5.934;2023-02-15T07:48:06;32.20;;;16.20;;
75358;SDS011;64046;51.978;5.934;2023-02-15T07:50:36;33.55;;;16.98;;
75358;SDS011;64046;51.978;5.934;2023-02-15T07:53:07;32.25;;;17.40;;
75358;SDS011;64046;51.978;5.934;2023-02-15T07:55:37;30.90;;;16.25;;
75358;SDS011;64046;51.978;5.934;2023-02-15T07:58:06;32.97;;;17.17;;
75358;SDS011;64046;51.978;5.934;2023-02-15T08:00:35;33.83;;;17.30;;
75358;SDS011;64046;51.978;5.934;2023-02-15T08:03:22;30.60;;;16.35;;
75358;SDS011;64046;51.978;5.934;2023-02-15T08:05:55;32.15;;;17.77;;
75358;SDS011;64046;51.978;5.934;2023-02-15T08:08:28;29.27;;;16.70;;
75358;SDS011;64046;51.978;5.934;2023-02-15T08:11:01;33.42;;;18.00;;
75358;SDS011;64046;51.978;5.934;2023-02-15T08:13:44;32.22;;;16.92;;
75358;SDS011;64046;51.978;5.934;2023-02-15T08:16:22;34.20;;;18.02;;
75358;SDS011;64046;51.978;5.934;2023-02-15T08:18:53;32.67;;;17.23;;
75358;SDS011;64046;51.978;5.934;2023-02-15T08:21:23;29.88;;;16.45;;
75358;SDS011;64046;51.978;5.934;2023-02-15T08:23:58;31.77;;;16.80;;
75358;SDS011;64046;51.978;5.934;2023-02-15T08:26:28;33.55;;;17.63;;
75358;SDS011;64046;51.978;5.934;2023-02-15T08:28:58;30.95;;;16.70;;
75358;SDS011;64046;51.978;5.934;2023-02-15T08:31:28;34.10;;;18.63;;
75358;SDS011;64046;51.978;5.934;2023-02-15T08:33:58;38.13;;;19.42;;
75358;SDS011;64046;51.978;5.934;2023-02-15T08:36:28;34.60;;;18.65;;
75358;SDS011;64046;51.978;5.934;2023-02-15T08:39:01;29.10;;;16.88;;
75358;SDS011;64046;51.978;5.934;2023-02-15T08:41:33;35.88;;;18.80;;
75358;SDS011;64046;51.978;5.934;2023-02-15T08:44:03;33.83;;;18.02;;
75358;SDS011;64046;51.978;5.934;2023-02-15T08:46:34;34.13;;;17.88;;
75358;SDS011;64046;51.978;5.934;2023-02-15T08:49:05;30.10;;;17.88;;
75358;SDS011;64046;51.978;5.934;2023-02-15T08:51:35;35.00;;;19.10;;
75358;SDS011;64046;51.978;5.934;2023-02-15T08:54:08;34.25;;;18.55;;
75358;SDS011;64046;51.978;5.934;2023-02-15T08:56:41;41.28;;;21.08;;
75358;SDS011;64046;51.978;5.934;2023-02-15T08:59:12;37.67;;;17.73;;
75358;SDS011;64046;51.978;5.934;2023-02-15T09:01:42;34.08;;;18.65;;
75358;SDS011;64046;51.978;5.934;2023-02-15T09:04:12;35.30;;;17.38;;
75358;SDS011;64046;51.978;5.934;2023-02-15T09:06:42;33.00;;;15.70;;
75358;SDS011;64046;51.978;5.934;2023-02-15T09:09:15;29.92;;;15.57;;
75358;SDS011;64046;51.978;5.934;2023-02-15T09:11:45;38.78;;;19.40;;
75358;SDS011;64046;51.978;5.934;2023-02-15T09:14:17;34.33;;;17.85;;
75358;SDS011;64046;51.978;5.934;2023-02-15T09:16:47;36.78;;;18.73;;
75358;SDS011;64046;51.978;5.934;2023-02-15T09:19:17;41.15;;;21.83;;
75358;SDS011;64046;51.978;5.934;2023-02-15T09:21:48;40.35;;;21.55;;
75358;SDS011;64046;51.978;5.934;2023-02-15T09:24:19;37.08;;;19.50;;
75358;SDS011;64046;51.978;5.934;2023-02-15T09:26:49;42.83;;;23.63;;
75358;SDS011;64046;51.978;5.934;2023-02-15T09:29:18;41.08;;;21.77;;
75358;SDS011;64046;51.978;5.934;2023-02-15T09:31:49;38.55;;;19.85;;
75358;SDS011;64046;51.978;5.934;2023-02-15T09:34:20;35.58;;;19.35;;
75358;SDS011;64046;51.978;5.934;2023-02-15T09:36:49;44.42;;;21.92;;
75358;SDS011;64046;51.978;5.934;2023-02-15T09:39:22;39.13;;;20.60;;
75358;SDS011;64046;51.978;5.934;2023-02-15T09:45:00;37.33;;;20.13;;
75358;SDS011;64046;51.978;5.934;2023-02-15T09:47:44;37.72;;;20.15;;
75358;SDS011;64046;51.978;5.934;2023-02-15T09:50:28;37.22;;;18.33;;
75358;SDS011;64046;51.978;5.934;2023-02-15T09:53:09;32.33;;;16.83;;
75358;SDS011;64046;51.978;5.934;2023-02-15T09:55:57;35.70;;;19.38;;
75358;SDS011;64046;51.978;5.934;2023-02-15T09:58:34;43.33;;;22.80;;
75358;SDS011;64046;51.978;5.934;2023-02-15T10:01:15;45.97;;;20.05;;
75358;SDS011;64046;51.978;5.934;2023-02-15T10:03:56;36.13;;;18.67;;
75358;SDS011;64046;51.978;5.934;2023-02-15T10:06:37;36.63;;;19.67;;
75358;SDS011;64046;51.978;5.934;2023-02-15T10:15:07;39.08;;;18.58;;
75358;SDS011;64046;51.978;5.934;2023-02-15T10:17:53;39.25;;;19.48;;
75358;SDS011;64046;51.978;5.934;2023-02-15T10:20:36;40.28;;;20.70;;
75358;SDS011;64046;51.978;5.934;2023-02-15T10:23:23;35.67;;;17.88;;
75358;SDS011;64046;51.978;5.934;2023-02-15T10:26:05;41.25;;;21.55;;
75358;SDS011;64046;51.978;5.934;2023-02-15T10:28:43;34.85;;;18.35;;
75358;SDS011;64046;51.978;5.934;2023-02-15T10:31:23;38.67;;;18.77;;
75358;SDS011;64046;51.978;5.934;2023-02-15T10:34:02;42.10;;;20.90;;
75358;SDS011;64046;51.978;5.934;2023-02-15T10:36:48;33.25;;;17.33;;
75358;SDS011;64046;51.978;5.934;2023-02-15T10:39:32;40.05;;;20.58;;
75358;SDS011;64046;51.978;5.934;2023-02-15T10:42:11;35.22;;;18.48;;
75358;SDS011;64046;51.978;5.934;2023-02-15T10:44:55;38.95;;;19.85;;
75358;SDS011;64046;51.978;5.934;2023-02-15T10:47:44;31.98;;;16.77;;
75358;SDS011;64046;51.978;5.934;2023-02-15T10:53:26;30.05;;;15.75;;
75358;SDS011;64046;51.978;5.934;2023-02-15T10:56:12;28.58;;;15.98;;
75358;SDS011;64046;51.978;5.934;2023-02-15T10:58:52;27.00;;;14.68;;
75358;SDS011;64046;51.978;5.934;2023-02-15T11:01:34;29.90;;;14.43;;
75358;SDS011;64046;51.978;5.934;2023-02-15T11:04:17;28.20;;;15.40;;
75358;SDS011;64046;51.978;5.934;2023-02-15T11:07:12;31.17;;;16.60;;
75358;SDS011;64046;51.978;5.934;2023-02-15T11:09:46;38.80;;;19.13;;
75358;SDS011;64046;51.978;5.934;2023-02-15T11:12:20;33.75;;;17.30;;
75358;SDS011;64046;51.978;5.934;2023-02-15T11:14:52;30.67;;;17.40;;
75358;SDS011;64046;51.978;5.934;2023-02-15T11:17:30;29.80;;;15.35;;
75358;SDS011;64046;51.978;5.934;2023-02-15T11:20:06;33.10;;;14.88;;
75358;SDS011;64046;51.978;5.934;2023-02-15T11:22:44;34.22;;;18.73;;
75358;SDS011;64046;51.978;5.934;2023-02-15T11:25:18;30.83;;;17.20;;
75358;SDS011;64046;51.978;5.934;2023-02-15T11:27:51;32.67;;;16.77;;
75358;SDS011;64046;51.978;5.934;2023-02-15T11:30:22;26.13;;;15.20;;
75358;SDS011;64046;51.978;5.934;2023-02-15T11:32:55;31.38;;;17.63;;
75358;SDS011;64046;51.978;5.934;2023-02-15T11:35:28;36.35;;;19.08;;
75358;SDS011;64046;51.978;5.934;2023-02-15T11:38:03;32.33;;;18.77;;
75358;SDS011;64046;51.978;5.934;2023-02-15T11:40:40;32.05;;;18.25;;
75358;SDS011;64046;51.978;5.934;2023-02-15T11:43:16;32.90;;;18.27;;
75358;SDS011;64046;51.978;5.934;2023-02-15T11:45:50;38.85;;;18.30;;
75358;SDS011;64046;51.978;5.934;2023-02-15T11:48:22;34.25;;;17.95;;
75358;SDS011;64046;51.978;5.934;2023-02-15T11:50:52;31.42;;;16.17;;
75358;SDS011;64046;51.978;5.934;2023-02-15T11:53:21;30.23;;;18.30;;
75358;SDS011;64046;51.978;5.934;2023-02-15T11:55:53;35.70;;;17.52;;
75358;SDS011;64046;51.978;5.934;2023-02-15T11:58:27;34.03;;;16.58;;
75358;SDS011;64046;51.978;5.934;2023-02-15T12:01:04;32.97;;;15.50;;
75358;SDS011;64046;51.978;5.934;2023-02-15T12:03:47;33.42;;;16.65;;
75358;SDS011;64046;51.978;5.934;2023-02-15T12:06:22;31.02;;;15.48;;
75358;SDS011;64046;51.978;5.934;2023-02-15T12:08:55;33.38;;;17.00;;
75358;SDS011;64046;51.978;5.934;2023-02-15T12:11:32;36.50;;;18.17;;
75358;SDS011;64046;51.978;5.934;2023-02-15T12:14:04;41.38;;;20.02;;
75358;SDS011;64046;51.978;5.934;2023-02-15T12:16:40;34.67;;;17.25;;
75358;SDS011;64046;51.978;5.934;2023-02-15T12:19:18;39.38;;;20.38;;
75358;SDS011;64046;51.978;5.934;2023-02-15T12:21:57;37.55;;;17.80;;
75358;SDS011;64046;51.978;5.934;2023-02-15T12:24:29;38.90;;;18.52;;
75358;SDS011;64046;51.978;5.934;2023-02-15T12:27:02;37.05;;;18.98;;
75358;SDS011;64046;51.978;5.934;2023-02-15T12:29:35;30.13;;;15.80;;
75358;SDS011;64046;51.978;5.934;2023-02-15T12:32:09;36.45;;;19.17;;
75358;SDS011;64046;51.978;5.934;2023-02-15T12:34:47;38.00;;;19.02;;
75358;SDS011;64046;51.978;5.934;2023-02-15T12:37:19;37.15;;;19.77;;
75358;SDS011;64046;51.978;5.934;2023-02-15T12:39:52;41.85;;;19.42;;
75358;SDS011;64046;51.978;5.934;2023-02-15T12:42:23;35.22;;;17.77;;
75358;SDS011;64046;51.978;5.934;2023-02-15T12:44:56;29.70;;;16.02;;
75358;SDS011;64046;51.978;5.934;2023-02-15T12:47:27;29.67;;;16.60;;
75358;SDS011;64046;51.978;5.934;2023-02-15T12:50:08;34.45;;;17.52;;
75358;SDS011;64046;51.978;5.934;2023-02-15T12:52:45;37.10;;;19.30;;
75358;SDS011;64046;51.978;5.934;2023-02-15T12:55:20;32.78;;;18.10;;
75358;SDS011;64046;51.978;5.934;2023-02-15T12:58:04;32.20;;;17.95;;
75358;SDS011;64046;51.978;5.934;2023-02-15T13:00:44;34.97;;;19.63;;
75358;SDS011;64046;51.978;5.934;2023-02-15T13:03:16;42.33;;;21.75;;
75358;SDS011;64046;51.978;5.934;2023-02-15T13:05:53;40.17;;;21.63;;
75358;SDS011;64046;51.978;5.934;2023-02-15T13:08:27;39.42;;;21.33;;
75358;SDS011;64046;51.978;5.934;2023-02-15T13:10:59;41.47;;;19.67;;
75358;SDS011;64046;51.978;5.934;2023-02-15T13:13:31;31.02;;;17.63;;
75358;SDS011;64046;51.978;5.934;2023-02-15T13:16:04;37.83;;;19.90;;
75358;SDS011;64046;51.978;5.934;2023-02-15T13:18:38;32.33;;;17.30;;
75358;SDS011;64046;51.978;5.934;2023-02-15T13:21:14;38.67;;;19.23;;
75358;SDS011;64046;51.978;5.934;2023-02-15T13:23:47;38.22;;;20.70;;
75358;SDS011;64046;51.978;5.934;2023-02-15T13:26:20;34.05;;;18.73;;
75358;SDS011;64046;51.978;5.934;2023-02-15T13:28:52;34.72;;;19.42;;
75358;SDS011;64046;51.978;5.934;2023-02-15T13:31:25;35.85;;;18.92;;
75358;SDS011;64046;51.978;5.934;2023-02-15T13:33:58;38.15;;;19.67;;
75358;SDS011;64046;51.978;5.934;2023-02-15T13:36:36;38.97;;;19.83;;
75358;SDS011;64046;51.978;5.934;2023-02-15T13:39:15;42.20;;;22.35;;
75358;SDS011;64046;51.978;5.934;2023-02-15T13:41:52;39.70;;;22.08;;
75358;SDS011;64046;51.978;5.934;2023-02-15T13:44:41;31.13;;;18.80;;
75358;SDS011;64046;51.978;5.934;2023-02-15T13:47:24;36.55;;;18.48;;
75358;SDS011;64046;51.978;5.934;2023-02-15T13:50:03;32.13;;;17.67;;
75358;SDS011;64046;51.978;5.934;2023-02-15T13:52:51;39.03;;;18.92;;
75358;SDS011;64046;51.978;5.934;2023-02-15T13:55:27;38.78;;;20.52;;
75358;SDS011;64046;51.978;5.934;2023-02-15T13:58:18;34.83;;;18.27;;
75358;SDS011;64046;51.978;5.934;2023-02-15T14:01:03;34.80;;;17.25;;
75358;SDS011;64046;51.978;5.934;2023-02-15T14:03:44;41.53;;;20.20;;
75358;SDS011;64046;51.978;5.934;2023-02-15T14:09:30;31.90;;;18.02;;
75358;SDS011;64046;51.978;5.934;2023-02-15T14:12:12;34.35;;;18.08;;
75358;SDS011;64046;51.978;5.934;2023-02-15T14:14:57;35.47;;;17.85;;
75358;SDS011;64046;51.978;5.934;2023-02-15T14:17:41;32.28;;;18.08;;
75358;SDS011;64046;51.978;5.934;2023-02-15T14:20:18;29.88;;;17.40;;
75358;SDS011;64046;51.978;5.934;2023-02-15T14:22:51;35.33;;;18.70;;
75358;SDS011;64046;51.978;5.934;2023-02-15T14:25:36;37.05;;;19.52;;
75358;SDS011;64046;51.978;5.934;2023-02-15T14:28:13;41.00;;;20.92;;
75358;SDS011;64046;51.978;5.934;2023-02-15T14:30:49;40.22;;;22.15;;
75358;SDS011;64046;51.978;5.934;2023-02-15T14:33:25;41.15;;;19.50;;
75358;SDS011;64046;51.978;5.934;2023-02-15T14:36:01;34.53;;;18.95;;
75358;SDS011;64046;51.978;5.934;2023-02-15T14:38:37;36.35;;;18.52;;
75358;SDS011;64046;51.978;5.934;2023-02-15T14:41:18;42.53;;;18.42;;
75358;SDS011;64046;51.978;5.934;2023-02-15T14:43:55;39.08;;;18.95;;
75358;SDS011;64046;51.978;5.934;2023-02-15T14:46:30;39.78;;;19.00;;
75358;SDS011;64046;51.978;5.934;2023-02-15T14:49:06;39.33;;;19.52;;
75358;SDS011;64046;51.978;5.934;2023-02-15T14:51:56;36.75;;;19.13;;
75358;SDS011;64046;51.978;5.934;2023-02-15T14:57:33;34.08;;;17.38;;
75358;SDS011;64046;51.978;5.934;2023-02-15T15:02:59;38.85;;;19.88;;
75358;SDS011;64046;51.978;5.934;2023-02-15T15:05:31;40.97;;;19.20;;
75358;SDS011;64046;51.978;5.934;2023-02-15T15:08:03;36.90;;;19.10;;
75358;SDS011;64046;51.978;5.934;2023-02-15T15:10:38;36.17;;;19.88;;
75358;SDS011;64046;51.978;5.934;2023-02-15T15:16:24;35.58;;;18.77;;
75358;SDS011;64046;51.978;5.934;2023-02-15T15:19:00;36.03;;;17.88;;
75358;SDS011;64046;51.978;5.934;2023-02-15T15:48:50;33.92;;;18.10;;
75358;SDS011;64046;51.978;5.934;2023-02-15T15:51:25;36.40;;;18.35;;
75358;SDS011;64046;51.978;5.934;2023-02-15T15:53:59;37.78;;;18.65;;
75358;SDS011;64046;51.978;5.934;2023-02-15T15:56:31;33.50;;;17.80;;
75358;SDS011;64046;51.978;5.934;2023-02-15T15:59:04;33.33;;;17.65;;
75358;SDS011;64046;51.978;5.934;2023-02-15T16:01:37;40.40;;;19.48;;